Time;durP1;ratioP1;P1;durP2;ratioP2;P2;SDS_P1;SDS_P2;PMS_P1;PMS_P2;Temp;Humidity;BMP_temperature;BMP_pressure;BME280_temperature;BME280_humidity;BME280_pressure;Samples;Min_cycle;Max_cycle;Signal;HPM_P1;HPM_P2
2023/07/08 00:00:52;;;;;;;8.60;5.30;;;22.90;43.50;;;;;;6113833;23;114054;-79
2023/07/08 00:03:19;;;;;;;7.90;5.07;;;22.80;43.70;;;;;;6112665;23;114928;-78
2023/07/08 00:05:47;;;;;;;8.23;5.28;;;22.90;43.60;;;;;;6111295;23;115279;-78
2023/07/08 00:08:14;;;;;;;8.40;5.32;;;22.90;43.20;;;;;;6112364;23;114188;-79
2023/07/08 00:10:41;;;;;;;10.07;6.00;;;22.90;43.60;;;;;;6112590;23;114276;-79
2023/07/08 00:13:09;;;;;;;8.23;5.60;;;22.90;43.30;;;;;;6111435;23;116347;-79
2023/07/08 00:15:37;;;;;;;6.97;4.75;;;22.90;43.60;;;;;;6111829;23;114665;-78
2023/07/08 00:18:14;;;;;;;9.60;5.72;;;22.90;43.50;;;;;;6112371;23;114292;-79
2023/07/08 00:20:46;;;;;;;9.45;5.45;;;22.90;43.20;;;;;;6113836;23;113998;-78
2023/07/08 00:23:13;;;;;;;9.15;5.57;;;22.90;43.20;;;;;;6110592;23;115109;-79
2023/07/08 00:25:40;;;;;;;7.60;5.07;;;22.90;43.40;;;;;;6112775;23;114753;-79
2023/07/08 00:28:14;;;;;;;8.13;5.28;;;22.80;43.40;;;;;;6113590;23;114211;-78
2023/07/08 00:30:41;;;;;;;7.32;5.47;;;22.80;43.20;;;;;;6113935;23;114110;-79
2023/07/08 00:33:09;;;;;;;8.32;4.82;;;22.80;43.50;;;;;;6135791;22;115413;-78
2023/07/08 00:35:37;;;;;;;8.55;5.38;;;22.80;43.60;;;;;;6136949;22;116198;-78
2023/07/08 00:38:20;;;;;;;8.15;5.22;;;22.80;43.60;;;;;;6115070;23;113991;-78
2023/07/08 00:40:58;;;;;;;8.43;5.65;;;22.80;43.40;;;;;;6138315;22;114296;-78
2023/07/08 00:43:47;;;;;;;9.48;5.53;;;22.80;43.40;;;;;;6136038;22;114990;-78
2023/07/08 00:46:34;;;;;;;8.85;5.50;;;22.80;43.20;;;;;;6111515;23;114670;-78
2023/07/08 00:49:05;;;;;;;8.75;5.03;;;22.80;43.50;;;;;;6088211;23;114221;-78
2023/07/08 00:51:32;;;;;;;8.57;5.55;;;22.70;43.60;;;;;;6113236;23;114277;-78
2023/07/08 00:53:59;;;;;;;8.65;5.55;;;22.70;43.80;;;;;;6114175;23;114811;-78
2023/07/08 00:56:29;;;;;;;9.82;6.32;;;22.70;43.30;;;;;;6111993;23;114584;-78
2023/07/08 00:59:06;;;;;;;8.75;6.10;;;22.70;43.00;;;;;;6114133;23;114111;-78
2023/07/08 01:01:39;;;;;;;9.38;6.13;;;22.70;42.60;;;;;;6088749;23;114275;-77
2023/07/08 01:04:20;;;;;;;8.07;5.32;;;22.60;42.60;;;;;;6111622;23;117249;-78
2023/07/08 01:06:56;;;;;;;6.68;5.47;;;22.60;43.20;;;;;;6089701;23;114705;-77
2023/07/08 01:09:28;;;;;;;11.68;5.85;;;22.60;43.50;;;;;;6112578;23;114013;-78
2023/07/08 01:11:58;;;;;;;9.20;5.47;;;22.60;43.40;;;;;;6112092;23;114160;-78
2023/07/08 01:14:26;;;;;;;8.85;5.72;;;22.60;43.20;;;;;;6110635;23;116082;-78
2023/07/08 01:16:53;;;;;;;9.65;5.60;;;22.60;43.00;;;;;;6111452;23;114638;-78
2023/07/08 01:19:21;;;;;;;9.10;5.15;;;22.50;43.40;;;;;;6087664;23;114196;-78
2023/07/08 01:22:01;;;;;;;9.27;5.70;;;22.60;43.50;;;;;;6112597;23;114270;-78
2023/07/08 01:24:29;;;;;;;9.15;5.43;;;22.50;43.40;;;;;;6136020;22;114897;-78
2023/07/08 01:26:57;;;;;;;8.07;5.57;;;22.50;43.10;;;;;;6111014;23;114650;-78
2023/07/08 01:29:25;;;;;;;8.68;6.10;;;22.50;43.00;;;;;;6112354;23;114256;-78
2023/07/08 01:31:54;;;;;;;7.38;5.50;;;22.50;43.10;;;;;;6113041;22;114179;-78
2023/07/08 01:34:21;;;;;;;8.10;5.55;;;22.50;43.40;;;;;;6111466;23;116108;-78
2023/07/08 01:36:50;;;;;;;7.60;5.35;;;22.50;42.70;;;;;;6111046;23;114625;-78
2023/07/08 01:39:19;;;;;;;8.25;5.47;;;22.50;43.10;;;;;;6086870;23;114436;-77
2023/07/08 01:41:46;;;;;;;9.07;5.40;;;22.40;42.50;;;;;;6112210;23;114418;-78
2023/07/08 01:44:23;;;;;;;9.50;5.80;;;22.40;43.40;;;;;;6110786;23;115833;-78
2023/07/08 01:46:51;;;;;;;7.45;5.47;;;22.50;43.40;;;;;;6112832;23;114570;-78
2023/07/08 01:49:18;;;;;;;8.93;5.60;;;22.40;43.50;;;;;;6063267;23;114184;-78
2023/07/08 01:51:45;;;;;;;10.20;5.30;;;22.50;43.20;;;;;;6087510;23;114393;-78
2023/07/08 01:54:12;;;;;;;9.43;5.72;;;22.50;43.20;;;;;;6086452;23;114888;-78
2023/07/08 01:56:39;;;;;;;8.68;5.95;;;22.40;43.00;;;;;;6136324;22;115861;-78
2023/07/08 01:59:06;;;;;;;8.73;6.47;;;22.40;43.20;;;;;;6136794;22;114402;-78
2023/07/08 02:01:33;;;;;;;10.38;5.90;;;22.40;43.20;;;;;;6136915;22;114319;-78
2023/07/08 02:04:00;;;;;;;8.02;5.15;;;22.40;43.20;;;;;;6111647;23;114905;-78
2023/07/08 02:06:28;;;;;;;8.18;5.35;;;22.30;43.50;;;;;;6112145;23;114650;-78
2023/07/08 02:09:06;;;;;;;7.22;5.25;;;22.40;43.60;;;;;;6112133;23;114216;-78
2023/07/08 02:11:33;;;;;;;8.23;5.40;;;22.30;43.70;;;;;;6113437;23;114322;-78
2023/07/08 02:14:03;;;;;;;9.45;5.43;;;22.40;43.50;;;;;;6112509;22;114982;-78
2023/07/08 02:16:31;;;;;;;7.40;5.25;;;22.40;43.40;;;;;;6086757;23;115014;-78
2023/07/08 02:18:59;;;;;;;9.25;6.93;;;22.40;43.50;;;;;;6113108;23;114225;-78
2023/07/08 02:21:29;;;;;;;8.27;5.93;;;22.30;42.70;;;;;;6113535;23;114287;-78
2023/07/08 02:23:56;;;;;;;10.32;6.35;;;22.30;42.80;;;;;;6112397;22;116795;-78
2023/07/08 02:26:23;;;;;;;7.72;5.20;;;22.30;43.10;;;;;;6113216;23;115831;-78
2023/07/08 02:28:50;;;;;;;8.32;5.85;;;22.30;43.50;;;;;;6111944;23;114278;-77
2023/07/08 02:31:17;;;;;;;10.40;6.65;;;22.30;43.30;;;;;;6114341;23;114037;-79
2023/07/08 02:33:45;;;;;;;10.75;5.90;;;22.30;42.20;;;;;;6112805;23;114888;-78
2023/07/08 02:36:12;;;;;;;9.18;5.80;;;22.30;43.00;;;;;;6136821;22;115118;-79
2023/07/08 02:38:39;;;;;;;8.88;6.03;;;22.20;43.30;;;;;;6112733;23;114435;-78
2023/07/08 02:41:08;;;;;;;7.70;5.60;;;22.20;43.30;;;;;;6137984;22;114215;-79
2023/07/08 02:43:35;;;;;;;8.57;5.85;;;22.20;43.30;;;;;;6136569;22;116404;-79
2023/07/08 02:46:02;;;;;;;7.85;5.60;;;22.20;43.60;;;;;;6113536;23;114668;-79
2023/07/08 02:48:30;;;;;;;7.20;5.60;;;22.30;43.40;;;;;;6114587;22;114301;-78
2023/07/08 02:51:01;;;;;;;8.60;5.97;;;22.30;43.70;;;;;;6114481;23;114325;-79
2023/07/08 02:53:29;;;;;;;7.57;5.18;;;22.30;43.20;;;;;;6111048;23;115722;-79
2023/07/08 02:55:56;;;;;;;9.07;5.28;;;22.30;43.40;;;;;;6111681;23;114617;-79
2023/07/08 02:58:24;;;;;;;9.93;6.80;;;22.30;43.20;;;;;;6112731;23;114310;-79
2023/07/08 03:00:55;;;;;;;7.30;5.40;;;22.30;42.60;;;;;;6112853;23;114146;-79
2023/07/08 03:03:23;;;;;;;10.57;5.95;;;22.30;43.10;;;;;;6113098;23;114776;-79
2023/07/08 03:06:04;;;;;;;8.23;5.88;;;22.30;43.20;;;;;;6136509;22;115118;-79
2023/07/08 03:08:31;;;;;;;7.57;5.45;;;22.30;43.00;;;;;;6114436;23;114416;-78
2023/07/08 03:11:00;;;;;;;8.75;5.30;;;22.30;43.40;;;;;;6113278;23;114215;-78
2023/07/08 03:13:28;;;;;;;7.05;5.45;;;22.30;43.30;;;;;;6111559;23;115879;-79
2023/07/08 03:16:01;;;;;;;11.95;6.22;;;22.30;43.00;;;;;;6111887;22;114531;-79
2023/07/08 03:18:29;;;;;;;8.90;6.03;;;22.30;42.90;;;;;;6112220;23;114327;-79
2023/07/08 03:20:57;;;;;;;9.88;6.60;;;22.30;42.90;;;;;;6088112;23;114109;-79
2023/07/08 03:23:26;;;;;;;9.02;6.15;;;22.50;42.50;;;;;;6136375;22;115323;-78
2023/07/08 03:25:54;;;;;;;7.85;5.78;;;22.80;42.50;;;;;;6112906;23;114509;-79
2023/07/08 03:28:24;;;;;;;8.07;5.20;;;23.30;42.10;;;;;;6088232;23;114292;-79
2023/07/08 03:30:52;;;;;;;8.27;5.80;;;23.80;41.50;;;;;;6116024;22;113873;-78
2023/07/08 03:33:20;;;;;;;7.47;5.28;;;24.20;40.00;;;;;;6088076;23;118076;-78
2023/07/08 03:35:47;;;;;;;8.90;5.60;;;24.70;39.80;;;;;;6138698;22;114606;-78
2023/07/08 03:38:17;;;;;;;7.00;5.07;;;25.00;39.10;;;;;;6138330;22;114050;-78
2023/07/08 03:40:44;;;;;;;8.70;5.65;;;25.40;38.10;;;;;;6114657;23;114092;-79
2023/07/08 03:43:11;;;;;;;7.72;5.78;;;25.70;37.20;;;;;;6112888;22;116042;-79
2023/07/08 03:45:38;;;;;;;9.75;5.95;;;25.90;36.90;;;;;;6114911;23;115584;-78
2023/07/08 03:48:10;;;;;;;8.18;5.75;;;26.10;36.40;;;;;;6092815;23;114991;-78
2023/07/08 03:50:37;;;;;;;6.85;5.03;;;26.20;35.70;;;;;;6114218;22;114228;-79
2023/07/08 03:53:04;;;;;;;6.68;4.82;;;26.20;36.40;;;;;;6113320;22;116219;-79
2023/07/08 03:55:32;;;;;;;9.60;5.68;;;26.20;35.80;;;;;;6111755;23;114582;-78
2023/07/08 03:58:02;;;;;;;7.53;5.20;;;26.20;35.60;;;;;;6112947;23;115012;-79
2023/07/08 04:00:34;;;;;;;9.25;5.88;;;26.30;36.30;;;;;;6066056;23;114619;-79
2023/07/08 04:03:02;;;;;;;9.30;5.80;;;26.30;35.90;;;;;;6111827;23;115989;-78
2023/07/08 04:05:31;;;;;;;7.95;5.05;;;26.50;35.20;;;;;;6136573;22;114482;-79
2023/07/08 04:07:59;;;;;;;11.15;5.57;;;26.50;35.70;;;;;;6113533;23;114094;-79
2023/07/08 04:10:26;;;;;;;7.95;5.72;;;26.50;35.20;;;;;;6112995;23;114070;-79
2023/07/08 04:12:53;;;;;;;9.52;5.78;;;26.50;34.60;;;;;;6113228;23;115396;-78
2023/07/08 04:15:25;;;;;;;10.15;5.18;;;26.30;34.70;;;;;;6111597;23;117402;-78
2023/07/08 04:17:55;;;;;;;8.35;5.18;;;26.30;35.60;;;;;;6090626;23;114331;-79
2023/07/08 04:20:24;;;;;;;9.10;5.10;;;26.30;34.90;;;;;;6112970;23;114655;-79
2023/07/08 04:22:51;;;;;;;8.20;4.97;;;26.20;35.20;;;;;;6112901;23;114787;-79
2023/07/08 04:25:19;;;;;;;7.63;5.07;;;26.00;34.80;;;;;;6113551;23;115332;-78
2023/07/08 04:27:46;;;;;;;6.82;4.50;;;25.90;34.90;;;;;;6113519;23;114187;-78
2023/07/08 04:30:24;;;;;;;7.70;5.28;;;25.80;35.30;;;;;;6114324;23;114094;-79
2023/07/08 04:32:52;;;;;;;6.28;4.10;;;25.80;35.40;;;;;;6110630;23;114806;-78
2023/07/08 04:35:22;;;;;;;8.07;4.70;;;25.70;35.30;;;;;;6112457;23;115121;-78
2023/07/08 04:37:49;;;;;;;7.20;4.38;;;25.50;35.30;;;;;;6114122;22;114100;-78
2023/07/08 04:40:18;;;;;;;6.25;4.53;;;25.40;36.20;;;;;;6113869;22;114409;-78
2023/07/08 04:42:47;;;;;;;8.70;4.32;;;25.40;36.70;;;;;;6113102;23;114794;-78
2023/07/08 04:45:16;;;;;;;6.65;4.28;;;25.40;35.30;;;;;;6111089;23;115824;-77
2023/07/08 04:47:46;;;;;;;6.32;4.25;;;25.30;35.50;;;;;;6087145;23;114187;-78
2023/07/08 04:50:14;;;;;;;6.72;4.22;;;25.20;36.10;;;;;;6112948;23;114522;-78
2023/07/08 04:52:41;;;;;;;7.93;4.32;;;25.10;36.00;;;;;;6111351;23;115201;-78
2023/07/08 04:55:09;;;;;;;8.27;4.25;;;25.10;36.30;;;;;;6112860;22;115309;-79
2023/07/08 04:57:36;;;;;;;5.88;3.85;;;25.10;36.30;;;;;;6113317;23;114099;-79
2023/07/08 05:00:07;;;;;;;6.70;3.75;;;25.00;35.80;;;;;;6114223;22;114234;-77
2023/07/08 05:02:34;;;;;;;5.32;3.72;;;24.90;35.90;;;;;;6111259;23;114953;-78
2023/07/08 05:05:02;;;;;;;5.47;4.10;;;24.80;36.10;;;;;;6111540;23;115568;-78
2023/07/08 05:07:29;;;;;;;7.10;4.07;;;24.80;36.30;;;;;;6114065;23;114453;-78
2023/07/08 05:09:57;;;;;;;9.27;4.20;;;24.80;36.80;;;;;;6113711;23;114217;-78
2023/07/08 05:12:25;;;;;;;8.30;4.90;;;24.90;36.30;;;;;;6112365;23;114909;-77
2023/07/08 05:14:52;;;;;;;6.97;4.60;;;25.00;36.40;;;;;;6113120;23;114576;-78
2023/07/08 05:17:19;;;;;;;6.30;4.28;;;25.10;36.40;;;;;;6113590;23;114487;-78
2023/07/08 05:19:50;;;;;;;7.93;4.55;;;25.00;36.40;;;;;;6113640;22;114186;-78
2023/07/08 05:22:18;;;;;;;8.20;4.05;;;25.10;36.20;;;;;;6110460;23;114813;-78
2023/07/08 05:24:45;;;;;;;8.77;4.40;;;25.20;35.80;;;;;;6112414;23;115192;-78
2023/07/08 05:27:15;;;;;;;6.53;4.78;;;25.30;35.40;;;;;;6113179;23;114270;-79
2023/07/08 05:29:48;;;;;;;5.22;4.32;;;25.30;35.90;;;;;;6111838;23;114200;-78
2023/07/08 05:32:16;;;;;;;5.95;3.85;;;25.30;35.40;;;;;;6111833;23;115150;-79
2023/07/08 05:34:43;;;;;;;5.70;3.45;;;25.20;35.70;;;;;;6111093;23;114038;-78
2023/07/08 05:37:11;;;;;;;5.30;3.70;;;25.30;35.50;;;;;;6113448;23;114050;-78
2023/07/08 05:39:38;;;;;;;5.30;3.63;;;25.30;35.50;;;;;;6112658;23;114290;-77
2023/07/08 05:42:06;;;;;;;5.68;4.15;;;25.40;35.10;;;;;;6112313;23;116371;-77
2023/07/08 05:44:33;;;;;;;6.47;4.10;;;25.50;35.10;;;;;;6135606;22;114534;-78
2023/07/08 05:47:00;;;;;;;5.20;3.80;;;25.40;34.80;;;;;;6112389;23;114222;-78
2023/07/08 05:49:27;;;;;;;7.05;3.80;;;25.30;35.30;;;;;;6136443;22;114380;-78
2023/07/08 05:51:55;;;;;;;6.10;4.00;;;25.30;35.30;;;;;;6111949;23;116285;-78
2023/07/08 05:54:22;;;;;;;6.65;4.05;;;25.30;35.30;;;;;;6111907;23;114623;-78
2023/07/08 05:56:51;;;;;;;6.85;3.70;;;25.50;35.10;;;;;;6113050;23;114084;-78
2023/07/08 05:59:19;;;;;;;5.60;3.90;;;25.70;34.90;;;;;;6112706;23;114164;-78
2023/07/08 06:01:46;;;;;;;4.90;3.58;;;25.80;34.80;;;;;;6136609;22;114875;-78
2023/07/08 06:04:13;;;;;;;4.68;3.30;;;25.90;34.80;;;;;;6113704;23;114810;-77
2023/07/08 06:06:41;;;;;;;5.88;3.20;;;26.10;34.80;;;;;;6114338;23;114248;-78
2023/07/08 06:09:08;;;;;;;5.68;3.97;;;26.30;34.50;;;;;;6114315;22;114324;-77
2023/07/08 06:11:36;;;;;;;4.78;3.45;;;26.40;34.30;;;;;;6112652;23;114916;-79
2023/07/08 06:14:03;;;;;;;5.55;3.83;;;26.60;34.50;;;;;;6111293;23;116779;-77
2023/07/08 06:16:31;;;;;;;4.70;3.30;;;26.70;34.00;;;;;;6088371;23;114220;-77
2023/07/08 06:19:07;;;;;;;6.90;3.25;;;26.80;33.70;;;;;;6114308;23;113973;-78
2023/07/08 06:21:35;;;;;;;7.45;3.63;;;26.90;34.00;;;;;;6111728;23;116105;-78
2023/07/08 06:24:02;;;;;;;5.50;3.20;;;27.10;33.20;;;;;;6113098;23;114653;-79
2023/07/08 06:26:29;;;;;;;4.72;3.05;;;27.20;33.30;;;;;;6114579;23;114290;-78
2023/07/08 06:28:56;;;;;;;4.25;3.20;;;27.30;33.10;;;;;;6114643;23;114695;-78
2023/07/08 06:31:23;;;;;;;8.05;3.42;;;27.30;33.00;;;;;;6113430;23;114902;-78
2023/07/08 06:33:50;;;;;;;4.80;3.30;;;27.50;32.70;;;;;;6112828;23;114448;-78
2023/07/08 06:36:18;;;;;;;4.57;2.80;;;27.60;33.00;;;;;;6113837;23;114276;-78
2023/07/08 06:38:45;;;;;;;7.35;3.42;;;27.70;32.40;;;;;;6114463;23;114207;-78
2023/07/08 06:41:12;;;;;;;5.22;2.88;;;27.80;32.30;;;;;;6113496;23;114933;-78
2023/07/08 06:43:39;;;;;;;4.97;3.17;;;27.80;32.20;;;;;;6087704;23;114707;-77
2023/07/08 06:46:20;;;;;;;7.85;3.38;;;27.80;32.10;;;;;;6115639;23;114255;-77
2023/07/08 06:48:47;;;;;;;4.15;2.92;;;27.90;32.10;;;;;;6115447;23;114182;-77
2023/07/08 06:51:14;;;;;;;7.05;3.13;;;28.00;32.40;;;;;;6087193;23;116228;-77
2023/07/08 06:53:41;;;;;;;4.88;2.75;;;28.10;31.70;;;;;;6112337;23;116109;-77
2023/07/08 06:56:08;;;;;;;5.72;2.78;;;28.20;31.20;;;;;;6112801;23;115000;-78
2023/07/08 06:58:35;;;;;;;5.13;3.28;;;28.10;31.40;;;;;;6088429;23;114162;-78
2023/07/08 07:01:03;;;;;;;4.45;2.70;;;28.20;31.40;;;;;;6111089;23;116172;-78
2023/07/08 07:03:30;;;;;;;4.68;2.45;;;28.30;30.60;;;;;;6113213;22;114671;-78
2023/07/08 07:05:58;;;;;;;3.22;2.20;;;28.30;30.40;;;;;;6114096;23;114089;-78
2023/07/08 07:08:25;;;;;;;4.38;2.63;;;28.30;30.30;;;;;;6112908;23;114361;-78
2023/07/08 07:10:53;;;;;;;3.70;2.75;;;28.40;30.00;;;;;;6110824;23;118598;-79
2023/07/08 07:13:20;;;;;;;3.78;2.72;;;28.40;29.70;;;;;;6136508;22;115224;-78
2023/07/08 07:15:49;;;;;;;4.55;2.67;;;28.40;29.80;;;;;;6114092;22;114464;-77
2023/07/08 07:18:18;;;;;;;4.80;3.25;;;28.40;30.20;;;;;;6114617;23;114033;-79
2023/07/08 07:20:52;;;;;;;3.83;2.65;;;28.40;30.50;;;;;;6111985;23;117521;-78
2023/07/08 07:23:21;;;;;;;4.95;2.67;;;28.50;29.90;;;;;;6112989;23;114533;-78
2023/07/08 07:25:48;;;;;;;3.78;2.53;;;28.60;29.90;;;;;;6112097;23;114067;-79
2023/07/08 07:28:16;;;;;;;5.80;2.60;;;28.60;29.60;;;;;;6112401;23;114252;-78
2023/07/08 07:30:44;;;;;;;4.53;2.58;;;28.50;29.90;;;;;;6113155;22;115155;-79
2023/07/08 07:33:11;;;;;;;4.40;2.63;;;28.40;30.00;;;;;;6112609;22;114850;-76
2023/07/08 07:35:43;;;;;;;4.70;2.45;;;28.40;29.80;;;;;;6114056;23;114523;-78
2023/07/08 07:38:10;;;;;;;4.43;1.88;;;28.40;29.80;;;;;;6114142;23;114195;-77
2023/07/08 07:40:39;;;;;;;3.45;2.25;;;28.40;29.10;;;;;;6113035;23;116585;-78
2023/07/08 07:43:06;;;;;;;4.40;2.63;;;28.50;29.10;;;;;;6113488;23;114582;-78
2023/07/08 07:45:33;;;;;;;4.15;2.70;;;28.50;28.60;;;;;;6112465;23;114110;-78
2023/07/08 07:48:01;;;;;;;3.70;2.30;;;28.50;28.00;;;;;;6112728;23;114157;-78
2023/07/08 07:50:30;;;;;;;3.45;2.20;;;28.50;28.00;;;;;;6110922;23;115335;-79
2023/07/08 07:52:58;;;;;;;3.88;2.25;;;28.60;26.70;;;;;;6111334;23;116184;-78
2023/07/08 07:55:25;;;;;;;5.30;2.40;;;28.60;27.10;;;;;;6113840;23;114379;-78
2023/07/08 07:57:52;;;;;;;3.40;2.30;;;28.60;27.50;;;;;;6114165;23;114076;-78
2023/07/08 08:00:19;;;;;;;3.17;2.03;;;28.70;27.10;;;;;;6112935;23;116735;-78
2023/07/08 08:02:47;;;;;;;3.42;2.15;;;28.70;27.30;;;;;;6112593;23;116805;-78
2023/07/08 08:05:14;;;;;;;4.05;2.30;;;28.70;25.90;;;;;;6112421;23;114234;-79
2023/07/08 08:07:41;;;;;;;5.15;2.83;;;28.60;26.20;;;;;;6114259;23;114147;-78
2023/07/08 08:10:08;;;;;;;3.03;2.30;;;28.60;26.30;;;;;;6112573;23;116139;-78
2023/07/08 08:12:36;;;;;;;3.58;2.40;;;28.50;26.10;;;;;;6112744;23;114757;-78
2023/07/08 08:15:19;;;;;;;3.80;2.35;;;28.40;26.60;;;;;;6113354;23;114135;-79
2023/07/08 08:17:48;;;;;;;5.22;2.30;;;28.20;26.60;;;;;;6112394;23;114131;-78
2023/07/08 08:20:16;;;;;;;3.35;2.30;;;28.20;26.90;;;;;;6111189;23;114905;-79
2023/07/08 08:22:43;;;;;;;4.57;2.67;;;28.20;27.40;;;;;;6112769;23;115260;-78
2023/07/08 08:25:11;;;;;;;4.07;2.33;;;28.30;27.00;;;;;;6113785;23;114190;-77
2023/07/08 08:27:38;;;;;;;4.00;2.42;;;28.30;27.30;;;;;;6111995;23;114313;-78
2023/07/08 08:30:06;;;;;;;5.28;2.80;;;28.50;27.60;;;;;;6112587;23;114897;-77
2023/07/08 08:32:33;;;;;;;4.80;2.80;;;28.60;27.60;;;;;;6112671;23;115795;-78
2023/07/08 08:35:00;;;;;;;5.18;2.50;;;28.60;26.80;;;;;;6112489;23;114219;-79
2023/07/08 08:37:29;;;;;;;5.10;2.70;;;28.30;27.20;;;;;;6113585;23;114246;-78
2023/07/08 08:39:56;;;;;;;3.88;2.40;;;28.30;27.40;;;;;;6112017;23;116160;-79
2023/07/08 08:42:27;;;;;;;6.75;2.58;;;28.30;27.30;;;;;;6110908;23;115888;-79
2023/07/08 08:44:57;;;;;;;4.15;2.55;;;28.30;27.80;;;;;;6113772;22;114265;-78
2023/07/08 08:47:32;;;;;;;4.68;2.80;;;28.30;27.10;;;;;;6112184;23;114183;-78
2023/07/08 08:50:19;;;;;;;6.55;3.08;;;28.20;27.20;;;;;;6111001;23;115429;-78
2023/07/08 08:52:46;;;;;;;5.53;2.63;;;28.30;27.40;;;;;;6135725;22;114589;-77
2023/07/08 08:55:13;;;;;;;7.18;2.63;;;28.30;27.40;;;;;;6113610;23;114181;-79
2023/07/08 08:57:54;;;;;;;4.13;2.75;;;28.50;27.60;;;;;;6112721;23;114438;-78
2023/07/08 09:00:55;;;;;;;4.38;2.60;;;28.60;27.70;;;;;;6110946;23;116532;-78
2023/07/08 09:03:57;;;;;;;4.50;2.83;;;28.70;27.60;;;;;;6098911;23;114703;-77
2023/07/08 09:06:29;;;;;;;4.07;2.58;;;28.80;27.60;;;;;;6108445;23;114580;-79
2023/07/08 09:08:57;;;;;;;3.80;2.30;;;28.80;27.50;;;;;;6087428;23;114231;-79
2023/07/08 09:11:43;;;;;;;4.45;2.42;;;28.80;27.50;;;;;;6111144;23;114722;-79
2023/07/08 09:14:18;;;;;;;4.68;2.70;;;28.70;27.40;;;;;;6112738;23;114492;-78
2023/07/08 09:17:07;;;;;;;5.03;2.60;;;28.50;27.80;;;;;;6111973;23;114056;-78
2023/07/08 09:19:37;;;;;;;4.82;2.30;;;28.40;27.50;;;;;;6112269;23;114072;-79
2023/07/08 09:22:24;;;;;;;4.15;2.53;;;28.40;27.50;;;;;;6112404;23;114836;-78
2023/07/08 09:24:58;;;;;;;4.65;2.35;;;28.50;27.60;;;;;;6136050;22;115372;-79
2023/07/08 09:27:27;;;;;;;5.38;2.45;;;28.40;27.40;;;;;;6111659;23;114616;-79
2023/07/08 09:29:55;;;;;;;4.10;2.75;;;28.50;27.30;;;;;;6113612;23;114229;-79
2023/07/08 09:32:24;;;;;;;4.40;2.90;;;28.50;28.00;;;;;;6109973;23;115035;-78
2023/07/08 09:35:05;;;;;;;6.40;2.78;;;28.40;27.70;;;;;;6111129;23;114575;-79
2023/07/08 09:37:34;;;;;;;5.90;2.83;;;28.30;28.00;;;;;;6136792;22;113929;-78
2023/07/08 09:40:14;;;;;;;3.65;2.60;;;28.20;28.10;;;;;;6113685;22;114315;-79
2023/07/08 09:42:41;;;;;;;3.78;2.40;;;28.20;27.70;;;;;;6112618;22;116450;-78
2023/07/08 09:45:14;;;;;;;4.75;2.42;;;28.20;27.90;;;;;;6111154;23;114608;-78
2023/07/08 09:47:44;;;;;;;4.40;2.50;;;28.20;27.80;;;;;;6115207;23;114120;-78
2023/07/08 09:50:19;;;;;;;4.28;2.40;;;28.30;27.60;;;;;;6113561;23;114263;-79
2023/07/08 09:52:51;;;;;;;3.20;2.40;;;28.20;28.20;;;;;;6112556;23;115172;-78
2023/07/08 09:55:19;;;;;;;4.37;2.40;;;28.20;28.00;;;;;;6111100;23;115377;-79
2023/07/08 09:57:48;;;;;;;4.45;2.75;;;28.30;28.20;;;;;;6112979;23;114377;-79
2023/07/08 10:00:17;;;;;;;6.95;2.97;;;28.20;27.70;;;;;;6112088;23;114264;-78
2023/07/08 10:03:08;;;;;;;3.75;2.50;;;28.10;27.70;;;;;;6112995;23;114793;-78
2023/07/08 10:05:38;;;;;;;4.10;2.38;;;28.10;27.90;;;;;;6111297;23;115447;-78
2023/07/08 10:08:15;;;;;;;4.65;2.88;;;28.00;28.20;;;;;;6112259;23;114181;-78
2023/07/08 10:10:42;;;;;;;3.30;2.30;;;28.00;28.00;;;;;;6112619;23;114204;-78
2023/07/08 10:13:17;;;;;;;4.28;2.70;;;28.00;27.70;;;;;;6110950;23;115016;-78
2023/07/08 10:15:47;;;;;;;4.30;2.47;;;28.10;27.90;;;;;;6112823;23;114561;-79
2023/07/08 10:18:16;;;;;;;4.15;2.65;;;28.20;28.00;;;;;;6111993;23;114351;-78
2023/07/08 10:21:10;;;;;;;3.10;2.03;;;28.20;27.60;;;;;;6111739;23;114048;-79
2023/07/08 10:23:37;;;;;;;;;;;28.10;27.50;;;;;;6086783;23;116657;-78
2023/07/08 10:26:14;;;;;;;4.07;2.45;;;27.80;28.10;;;;;;6112139;22;116116;-79
2023/07/08 10:28:49;;;;;;;4.45;2.92;;;27.70;28.20;;;;;;6111923;23;114294;-78
2023/07/08 10:35:13;;;;;;;3.70;2.83;;;28.10;28.30;;;;;;6006095;23;114645;-79
2023/07/08 10:38:09;;;;;;;4.72;2.78;;;28.30;28.70;;;;;;5976148;23;114538;-79
2023/07/08 10:40:37;;;;;;;4.22;2.67;;;28.40;28.50;;;;;;6087578;23;114218;-77
2023/07/08 10:43:09;;;;;;;4.90;2.58;;;28.60;28.50;;;;;;6113662;23;114279;-77
2023/07/08 10:45:56;;;;;;;4.50;2.58;;;28.80;27.60;;;;;;6112672;23;114859;-79
2023/07/08 10:48:35;;;;;;;5.97;2.63;;;28.80;27.60;;;;;;6113691;23;114864;-78
2023/07/08 10:51:32;;;;;;;3.67;2.50;;;28.70;28.10;;;;;;6112294;23;114323;-78
2023/07/08 10:54:31;;;;;;;3.40;2.50;;;28.60;28.30;;;;;;6114307;23;114168;-79
2023/07/08 10:57:31;;;;;;;3.88;2.70;;;28.40;28.10;;;;;;6113369;23;114884;-80
2023/07/08 11:00:17;;;;;;;4.82;2.60;;;28.40;28.40;;;;;;6086809;23;116428;-78
2023/07/08 11:02:53;;;;;;;3.50;2.40;;;28.40;28.40;;;;;;6114114;23;114141;-79
2023/07/08 11:05:32;;;;;;;6.63;2.70;;;28.40;28.10;;;;;;6114406;23;114144;-78
2023/07/08 11:08:18;;;;;;;4.30;2.60;;;28.40;28.40;;;;;;6136780;22;115013;-78
2023/07/08 11:10:48;;;;;;;4.63;2.65;;;28.40;28.40;;;;;;6113706;23;114556;-78
2023/07/08 11:13:18;;;;;;;3.60;2.83;;;28.30;28.20;;;;;;6114247;23;113972;-78
2023/07/08 11:16:05;;;;;;;5.20;2.65;;;28.20;28.30;;;;;;6113065;23;114634;-79
2023/07/08 11:19:02;;;;;;;6.20;2.95;;;28.30;28.40;;;;;;6112499;22;114995;-78
2023/07/08 11:21:47;;;;;;;4.07;2.80;;;28.20;28.70;;;;;;6113122;22;115808;-78
2023/07/08 11:24:29;;;;;;;3.55;2.40;;;28.30;28.60;;;;;;6112853;23;114255;-78
2023/07/08 11:27:22;;;;;;;5.55;2.47;;;28.30;29.00;;;;;;6112171;23;114285;-79
2023/07/08 11:29:52;;;;;;;4.63;3.20;;;28.40;29.20;;;;;;6111306;23;116031;-79
2023/07/08 11:32:21;;;;;;;4.82;2.80;;;28.40;29.30;;;;;;6087111;23;114855;-78
2023/07/08 11:34:50;;;;;;;6.57;2.83;;;28.50;29.70;;;;;;6112551;23;114345;-78
2023/07/08 11:37:23;;;;;;;5.45;2.72;;;28.50;29.60;;;;;;6113106;23;114097;-79
2023/07/08 11:39:58;;;;;;;3.67;2.70;;;28.60;29.50;;;;;;6111390;23;116653;-79
2023/07/08 11:42:45;;;;;;;4.40;2.55;;;28.80;29.30;;;;;;6112852;23;114593;-80
2023/07/08 11:45:35;;;;;;;4.78;2.63;;;28.80;29.40;;;;;;6112042;23;114421;-79
2023/07/08 11:48:38;;;;;;;4.30;2.33;;;28.90;28.90;;;;;;6112441;23;114211;-79
2023/07/08 11:51:05;;;;;;;4.17;2.83;;;28.90;28.90;;;;;;6087096;23;114682;-77
2023/07/08 11:53:47;;;;;;;5.22;2.80;;;28.80;29.00;;;;;;6113024;23;114830;-80
2023/07/08 11:56:19;;;;;;;3.17;2.50;;;28.80;28.90;;;;;;6112278;23;114326;-78
2023/07/08 11:58:47;;;;;;;5.03;2.63;;;28.80;29.10;;;;;;6113815;23;114105;-79
2023/07/08 12:01:17;;;;;;;5.35;3.05;;;28.60;28.40;;;;;;6112750;23;114903;-78
2023/07/08 12:03:55;;;;;;;5.32;2.75;;;28.50;29.00;;;;;;6113404;23;115862;-79
2023/07/08 12:06:28;;;;;;;4.30;2.75;;;28.50;29.20;;;;;;6137634;22;114339;-78
2023/07/08 12:08:59;;;;;;;4.47;2.88;;;28.40;29.40;;;;;;6114009;23;114185;-78
2023/07/08 12:11:43;;;;;;;4.28;2.80;;;28.30;28.80;;;;;;6132976;22;114766;-78
2023/07/08 12:14:10;;;;;;;4.80;2.42;;;28.30;29.20;;;;;;6086537;23;114727;-79
2023/07/08 12:16:37;;;;;;;5.07;2.78;;;28.30;29.70;;;;;;6112119;23;114092;-79
2023/07/08 12:19:05;;;;;;;3.38;2.38;;;28.40;28.80;;;;;;6113952;23;114351;-79
2023/07/08 12:21:36;;;;;;;4.45;2.60;;;28.30;28.80;;;;;;6111354;23;115056;-78
2023/07/08 12:24:05;;;;;;;4.38;2.55;;;28.30;29.10;;;;;;6112771;23;114581;-78
2023/07/08 12:26:33;;;;;;;3.72;2.65;;;28.30;28.80;;;;;;6112037;23;114467;-79
2023/07/08 12:29:01;;;;;;;4.75;3.00;;;28.30;29.20;;;;;;6112594;23;114323;-79
2023/07/08 12:31:28;;;;;;;4.28;2.83;;;28.20;28.60;;;;;;6111158;23;114856;-78
2023/07/08 12:33:57;;;;;;;3.40;2.30;;;28.00;29.30;;;;;;6110587;23;114676;-79
2023/07/08 12:36:28;;;;;;;4.22;2.83;;;28.00;29.50;;;;;;6111993;23;114196;-78
2023/07/08 12:38:58;;;;;;;3.95;2.40;;;28.10;29.10;;;;;;6112386;23;114083;-78
2023/07/08 12:41:35;;;;;;;3.50;2.58;;;27.90;28.50;;;;;;6111184;22;118766;-78
2023/07/08 12:44:14;;;;;;;5.55;2.67;;;27.90;29.00;;;;;;6111866;22;115826;-79
2023/07/08 12:46:41;;;;;;;5.45;2.70;;;27.90;29.90;;;;;;6112326;23;114186;-79
2023/07/08 12:49:08;;;;;;;6.15;2.58;;;27.80;30.00;;;;;;6112229;23;114406;-79
2023/07/08 12:51:35;;;;;;;6.93;2.80;;;27.80;29.90;;;;;;6136240;22;114960;-80
2023/07/08 12:54:03;;;;;;;4.53;2.88;;;27.90;29.90;;;;;;6136980;22;115123;-78
2023/07/08 12:56:31;;;;;;;4.78;2.60;;;27.90;29.30;;;;;;6113780;22;114124;-77
2023/07/08 12:58:59;;;;;;;4.22;2.72;;;27.90;29.70;;;;;;6113606;23;114074;-77